sensor_id;sensor_type;location;lat;lon;timestamp;temperature;humidity
78490;DHT22;67776;52.012;4.736;2024-01-11T00:01:57;-3.07;76.49
78490;DHT22;67776;52.012;4.736;2024-01-11T00:04:23;-3.07;76.76
78490;DHT22;67776;52.012;4.736;2024-01-11T00:06:50;-3.13;77.34
78490;DHT22;67776;52.012;4.736;2024-01-11T00:09:15;-3.07;76.82
78490;DHT22;67776;52.012;4.736;2024-01-11T00:11:41;-3.11;77.31
78490;DHT22;67776;52.012;4.736;2024-01-11T00:14:06;-3.15;77.57
78490;DHT22;67776;52.012;4.736;2024-01-11T00:16:32;-3.11;77.45
78490;DHT22;67776;52.012;4.736;2024-01-11T00:18:57;-3.15;77.46
78490;DHT22;67776;52.012;4.736;2024-01-11T00:21:22;-3.11;77.20
78490;DHT22;67776;52.012;4.736;2024-01-11T00:23:49;-3.17;77.88
78490;DHT22;67776;52.012;4.736;2024-01-11T00:26:14;-3.18;78.04
78490;DHT22;67776;52.012;4.736;2024-01-11T00:28:40;-3.15;77.94
78490;DHT22;67776;52.012;4.736;2024-01-11T00:31:05;-3.11;77.78
78490;DHT22;67776;52.012;4.736;2024-01-11T00:33:31;-3.14;77.77
78490;DHT22;67776;52.012;4.736;2024-01-11T00:35:56;-3.35;79.45
78490;DHT22;67776;52.012;4.736;2024-01-11T00:38:22;-3.49;80.60
78490;DHT22;67776;52.012;4.736;2024-01-11T00:40:47;-3.47;80.21
78490;DHT22;67776;52.012;4.736;2024-01-11T00:43:12;-3.51;80.46
78490;DHT22;67776;52.012;4.736;2024-01-11T00:45:38;-3.49;80.04
78490;DHT22;67776;52.012;4.736;2024-01-11T00:48:04;-3.42;80.03
78490;DHT22;67776;52.012;4.736;2024-01-11T00:50:29;-3.52;80.09
78490;DHT22;67776;52.012;4.736;2024-01-11T00:52:54;-3.51;79.81
78490;DHT22;67776;52.012;4.736;2024-01-11T00:55:20;-3.49;79.47
78490;DHT22;67776;52.012;4.736;2024-01-11T00:57:45;-3.52;80.53
78490;DHT22;67776;52.012;4.736;2024-01-11T01:00:11;-3.47;80.14
78490;DHT22;67776;52.012;4.736;2024-01-11T01:02:40;-3.52;80.79
78490;DHT22;67776;52.012;4.736;2024-01-11T01:05:05;-3.60;81.33
78490;DHT22;67776;52.012;4.736;2024-01-11T01:07:31;-3.58;82.02
78490;DHT22;67776;52.012;4.736;2024-01-11T01:09:57;-3.65;82.13
78490;DHT22;67776;52.012;4.736;2024-01-11T01:12:22;-3.52;81.64
78490;DHT22;67776;52.012;4.736;2024-01-11T01:14:47;-3.55;82.31
78490;DHT22;67776;52.012;4.736;2024-01-11T01:17:13;-3.59;82.95
78490;DHT22;67776;52.012;4.736;2024-01-11T01:19:38;-3.75;83.61
78490;DHT22;67776;52.012;4.736;2024-01-11T01:22:03;-3.77;83.42
78490;DHT22;67776;52.012;4.736;2024-01-11T01:24:30;-3.70;83.17
78490;DHT22;67776;52.012;4.736;2024-01-11T01:26:56;-3.58;82.75
78490;DHT22;67776;52.012;4.736;2024-01-11T01:29:21;-3.66;83.21
78490;DHT22;67776;52.012;4.736;2024-01-11T01:31:46;-3.59;82.92
78490;DHT22;67776;52.012;4.736;2024-01-11T01:34:12;-3.56;82.68
78490;DHT22;67776;52.012;4.736;2024-01-11T01:36:37;-3.65;83.16
78490;DHT22;67776;52.012;4.736;2024-01-11T01:39:03;-3.63;82.65
78490;DHT22;67776;52.012;4.736;2024-01-11T01:41:28;-3.65;83.48
78490;DHT22;67776;52.012;4.736;2024-01-11T01:43:54;-3.66;83.08
78490;DHT22;67776;52.012;4.736;2024-01-11T01:46:23;-3.75;83.46
78490;DHT22;67776;52.012;4.736;2024-01-11T01:48:49;-3.69;83.53
78490;DHT22;67776;52.012;4.736;2024-01-11T01:51:15;-3.65;83.11
78490;DHT22;67776;52.012;4.736;2024-01-11T01:53:41;-3.83;84.15
78490;DHT22;67776;52.012;4.736;2024-01-11T01:56:06;-3.82;84.07
78490;DHT22;67776;52.012;4.736;2024-01-11T01:58:33;-3.80;84.05
78490;DHT22;67776;52.012;4.736;2024-01-11T02:00:59;-3.72;83.68
78490;DHT22;67776;52.012;4.736;2024-01-11T02:03:27;-3.69;83.64
78490;DHT22;67776;52.012;4.736;2024-01-11T02:05:53;-3.67;83.72
78490;DHT22;67776;52.012;4.736;2024-01-11T02:08:21;-3.72;83.62
78490;DHT22;67776;52.012;4.736;2024-01-11T02:10:47;-3.76;83.91
78490;DHT22;67776;52.012;4.736;2024-01-11T02:13:13;-3.79;84.34
78490;DHT22;67776;52.012;4.736;2024-01-11T02:15:38;-3.83;84.26
78490;DHT22;67776;52.012;4.736;2024-01-11T02:18:04;-3.93;84.33
78490;DHT22;67776;52.012;4.736;2024-01-11T02:20:30;-4.00;85.18
78490;DHT22;67776;52.012;4.736;2024-01-11T02:23:00;-3.97;85.33
78490;DHT22;67776;52.012;4.736;2024-01-11T02:25:26;-3.98;85.10
78490;DHT22;67776;52.012;4.736;2024-01-11T02:27:51;-3.93;85.03
78490;DHT22;67776;52.012;4.736;2024-01-11T02:30:17;-4.00;85.28
78490;DHT22;67776;52.012;4.736;2024-01-11T02:32:43;-4.07;85.67
78490;DHT22;67776;52.012;4.736;2024-01-11T02:35:12;-4.01;85.39
78490;DHT22;67776;52.012;4.736;2024-01-11T02:37:38;-4.00;85.37
78490;DHT22;67776;52.012;4.736;2024-01-11T02:40:06;-4.03;85.62
78490;DHT22;67776;52.012;4.736;2024-01-11T02:42:32;-4.03;85.72
78490;DHT22;67776;52.012;4.736;2024-01-11T02:44:57;-4.07;85.68
78490;DHT22;67776;52.012;4.736;2024-01-11T02:47:23;-4.08;85.62
78490;DHT22;67776;52.012;4.736;2024-01-11T02:49:48;-4.15;86.07
78490;DHT22;67776;52.012;4.736;2024-01-11T02:52:13;-4.11;86.12
78490;DHT22;67776;52.012;4.736;2024-01-11T02:54:39;-4.03;85.18
78490;DHT22;67776;52.012;4.736;2024-01-11T02:57:04;-4.10;85.66
78490;DHT22;67776;52.012;4.736;2024-01-11T02:59:29;-4.07;85.93
78490;DHT22;67776;52.012;4.736;2024-01-11T03:01:55;-4.19;86.32
78490;DHT22;67776;52.012;4.736;2024-01-11T03:04:20;-4.18;86.30
78490;DHT22;67776;52.012;4.736;2024-01-11T03:06:46;-4.11;86.29
78490;DHT22;67776;52.012;4.736;2024-01-11T03:09:11;-4.17;86.53
78490;DHT22;67776;52.012;4.736;2024-01-11T03:11:36;-4.11;86.30
78490;DHT22;67776;52.012;4.736;2024-01-11T03:14:03;-4.10;85.99
78490;DHT22;67776;52.012;4.736;2024-01-11T03:16:28;-4.10;85.98
78490;DHT22;67776;52.012;4.736;2024-01-11T03:18:53;-4.14;86.29
78490;DHT22;67776;52.012;4.736;2024-01-11T03:21:19;-4.22;86.95
78490;DHT22;67776;52.012;4.736;2024-01-11T03:23:44;-4.24;86.83
78490;DHT22;67776;52.012;4.736;2024-01-11T03:26:16;-4.31;87.45
78490;DHT22;67776;52.012;4.736;2024-01-11T03:28:42;-4.33;87.36
78490;DHT22;67776;52.012;4.736;2024-01-11T03:31:10;-4.32;87.19
78490;DHT22;67776;52.012;4.736;2024-01-11T03:33:36;-4.28;87.19
78490;DHT22;67776;52.012;4.736;2024-01-11T03:36:11;-4.26;87.10
78490;DHT22;67776;52.012;4.736;2024-01-11T03:38:36;-4.29;87.29
78490;DHT22;67776;52.012;4.736;2024-01-11T03:41:02;-4.31;87.19
78490;DHT22;67776;52.012;4.736;2024-01-11T03:43:32;-4.33;87.30
78490;DHT22;67776;52.012;4.736;2024-01-11T03:45:57;-4.32;87.56
78490;DHT22;67776;52.012;4.736;2024-01-11T03:48:23;-4.41;87.86
78490;DHT22;67776;52.012;4.736;2024-01-11T03:50:48;-4.39;87.93
78490;DHT22;67776;52.012;4.736;2024-01-11T03:53:14;-4.44;88.55
78490;DHT22;67776;52.012;4.736;2024-01-11T03:55:39;-4.51;88.70
78490;DHT22;67776;52.012;4.736;2024-01-11T03:58:04;-4.44;88.87
78490;DHT22;67776;52.012;4.736;2024-01-11T04:00:30;-4.42;88.63
78490;DHT22;67776;52.012;4.736;2024-01-11T04:02:55;-4.44;88.66
78490;DHT22;67776;52.012;4.736;2024-01-11T04:05:20;-4.41;88.58
78490;DHT22;67776;52.012;4.736;2024-01-11T04:07:46;-4.48;88.57
78490;DHT22;67776;52.012;4.736;2024-01-11T04:10:11;-4.52;88.98
78490;DHT22;67776;52.012;4.736;2024-01-11T04:12:36;-4.46;89.29
78490;DHT22;67776;52.012;4.736;2024-01-11T04:15:03;-4.41;89.08
78490;DHT22;67776;52.012;4.736;2024-01-11T04:17:28;-4.35;89.00
78490;DHT22;67776;52.012;4.736;2024-01-11T04:19:53;-4.38;89.17
78490;DHT22;67776;52.012;4.736;2024-01-11T04:22:19;-4.33;89.20
78490;DHT22;67776;52.012;4.736;2024-01-11T04:24:44;-4.32;88.80
78490;DHT22;67776;52.012;4.736;2024-01-11T04:27:10;-4.33;88.99
78490;DHT22;67776;52.012;4.736;2024-01-11T04:29:35;-4.32;89.14
78490;DHT22;67776;52.012;4.736;2024-01-11T04:32:00;-4.45;89.62
78490;DHT22;67776;52.012;4.736;2024-01-11T04:34:26;-4.39;89.46
78490;DHT22;67776;52.012;4.736;2024-01-11T04:36:52;-4.44;89.81
78490;DHT22;67776;52.012;4.736;2024-01-11T04:39:17;-4.36;89.50
78490;DHT22;67776;52.012;4.736;2024-01-11T04:41:42;-4.38;89.68
78490;DHT22;67776;52.012;4.736;2024-01-11T04:44:08;-4.36;89.38
78490;DHT22;67776;52.012;4.736;2024-01-11T04:46:34;-4.41;89.93
78490;DHT22;67776;52.012;4.736;2024-01-11T04:49:00;-4.39;89.32
78490;DHT22;67776;52.012;4.736;2024-01-11T04:51:25;-4.41;89.51
78490;DHT22;67776;52.012;4.736;2024-01-11T04:53:50;-4.39;88.81
78490;DHT22;67776;52.012;4.736;2024-01-11T04:56:16;-4.38;88.60
78490;DHT22;67776;52.012;4.736;2024-01-11T04:58:43;-4.36;88.68
78490;DHT22;67776;52.012;4.736;2024-01-11T05:01:16;-4.35;88.64
78490;DHT22;67776;52.012;4.736;2024-01-11T05:03:42;-4.44;89.07
78490;DHT22;67776;52.012;4.736;2024-01-11T05:06:08;-4.46;89.10
78490;DHT22;67776;52.012;4.736;2024-01-11T05:08:33;-4.48;89.42
78490;DHT22;67776;52.012;4.736;2024-01-11T05:10:58;-4.48;89.68
78490;DHT22;67776;52.012;4.736;2024-01-11T05:13:24;-4.51;89.70
78490;DHT22;67776;52.012;4.736;2024-01-11T05:15:49;-4.46;89.35
78490;DHT22;67776;52.012;4.736;2024-01-11T05:18:14;-4.53;89.88
78490;DHT22;67776;52.012;4.736;2024-01-11T05:20:40;-4.58;89.75
78490;DHT22;67776;52.012;4.736;2024-01-11T05:23:06;-4.52;89.41
78490;DHT22;67776;52.012;4.736;2024-01-11T05:25:32;-4.58;89.73
78490;DHT22;67776;52.012;4.736;2024-01-11T05:28:01;-4.56;89.82
78490;DHT22;67776;52.012;4.736;2024-01-11T05:30:26;-4.56;89.87
78490;DHT22;67776;52.012;4.736;2024-01-11T05:32:52;-4.59;89.94
78490;DHT22;67776;52.012;4.736;2024-01-11T05:35:18;-4.58;90.38
78490;DHT22;67776;52.012;4.736;2024-01-11T05:37:43;-4.56;90.16
78490;DHT22;67776;52.012;4.736;2024-01-11T05:40:08;-4.52;89.61
78490;DHT22;67776;52.012;4.736;2024-01-11T05:42:34;-4.49;89.37
78490;DHT22;67776;52.012;4.736;2024-01-11T05:44:59;-4.65;90.79
78490;DHT22;67776;52.012;4.736;2024-01-11T05:47:24;-4.62;90.14
78490;DHT22;67776;52.012;4.736;2024-01-11T05:49:50;-4.70;90.74
78490;DHT22;67776;52.012;4.736;2024-01-11T05:52:15;-4.73;90.60
78490;DHT22;67776;52.012;4.736;2024-01-11T05:54:41;-4.77;91.47
78490;DHT22;67776;52.012;4.736;2024-01-11T05:57:06;-4.79;91.82
78490;DHT22;67776;52.012;4.736;2024-01-11T05:59:32;-4.77;91.45
78490;DHT22;67776;52.012;4.736;2024-01-11T06:01:58;-4.73;91.09
78490;DHT22;67776;52.012;4.736;2024-01-11T06:04:26;-4.68;91.23
78490;DHT22;67776;52.012;4.736;2024-01-11T06:06:51;-4.73;91.18
78490;DHT22;67776;52.012;4.736;2024-01-11T06:09:17;-4.73;91.22
78490;DHT22;67776;52.012;4.736;2024-01-11T06:11:42;-4.63;91.18
78490;DHT22;67776;52.012;4.736;2024-01-11T06:14:07;-4.58;91.05
78490;DHT22;67776;52.012;4.736;2024-01-11T06:16:33;-4.65;91.07
78490;DHT22;67776;52.012;4.736;2024-01-11T06:18:58;-4.72;90.97
78490;DHT22;67776;52.012;4.736;2024-01-11T06:21:24;-4.79;90.96
78490;DHT22;67776;52.012;4.736;2024-01-11T06:23:49;-4.83;90.82
78490;DHT22;67776;52.012;4.736;2024-01-11T06:26:14;-4.88;90.65
78490;DHT22;67776;52.012;4.736;2024-01-11T06:28:40;-4.91;90.64
78490;DHT22;67776;52.012;4.736;2024-01-11T06:31:05;-4.84;90.91
78490;DHT22;67776;52.012;4.736;2024-01-11T06:33:31;-4.77;91.52
78490;DHT22;67776;52.012;4.736;2024-01-11T06:35:58;-4.79;91.40
78490;DHT22;67776;52.012;4.736;2024-01-11T06:38:23;-4.76;91.91
78490;DHT22;67776;52.012;4.736;2024-01-11T06:40:49;-4.77;91.62
78490;DHT22;67776;52.012;4.736;2024-01-11T06:43:15;-4.77;91.62
78490;DHT22;67776;52.012;4.736;2024-01-11T06:45:43;-4.75;91.78
78490;DHT22;67776;52.012;4.736;2024-01-11T06:48:08;-4.66;91.69
78490;DHT22;67776;52.012;4.736;2024-01-11T06:50:34;-4.68;91.61
78490;DHT22;67776;52.012;4.736;2024-01-11T06:53:00;-4.65;91.97
78490;DHT22;67776;52.012;4.736;2024-01-11T06:55:26;-4.60;91.93
78490;DHT22;67776;52.012;4.736;2024-01-11T06:57:51;-4.53;91.98
78490;DHT22;67776;52.012;4.736;2024-01-11T07:00:17;-4.49;92.16
78490;DHT22;67776;52.012;4.736;2024-01-11T07:02:42;-4.48;91.65
78490;DHT22;67776;52.012;4.736;2024-01-11T07:05:08;-4.46;91.92
78490;DHT22;67776;52.012;4.736;2024-01-11T07:07:33;-4.45;91.83
78490;DHT22;67776;52.012;4.736;2024-01-11T07:09:59;-4.44;92.51
78490;DHT22;67776;52.012;4.736;2024-01-11T07:12:24;-4.35;92.14
78490;DHT22;67776;52.012;4.736;2024-01-11T07:14:51;-4.35;92.34
78490;DHT22;67776;52.012;4.736;2024-01-11T07:17:16;-4.29;92.01
78490;DHT22;67776;52.012;4.736;2024-01-11T07:19:42;-4.25;91.83
78490;DHT22;67776;52.012;4.736;2024-01-11T07:22:07;-4.36;92.09
78490;DHT22;67776;52.012;4.736;2024-01-11T07:24:32;-4.31;91.80
78490;DHT22;67776;52.012;4.736;2024-01-11T07:27:04;-4.29;91.68
78490;DHT22;67776;52.012;4.736;2024-01-11T07:29:30;-4.31;91.87
78490;DHT22;67776;52.012;4.736;2024-01-11T07:31:55;-4.36;92.67
78490;DHT22;67776;52.012;4.736;2024-01-11T07:34:20;-4.44;92.28
78490;DHT22;67776;52.012;4.736;2024-01-11T07:36:46;-4.38;91.85
78490;DHT22;67776;52.012;4.736;2024-01-11T07:39:11;-4.33;91.48
78490;DHT22;67776;52.012;4.736;2024-01-11T07:41:37;-4.39;91.52
78490;DHT22;67776;52.012;4.736;2024-01-11T07:44:02;-4.42;91.74
78490;DHT22;67776;52.012;4.736;2024-01-11T07:46:28;-4.45;91.94
78490;DHT22;67776;52.012;4.736;2024-01-11T07:48:53;-4.48;92.12
78490;DHT22;67776;52.012;4.736;2024-01-11T07:51:19;-4.53;92.57
78490;DHT22;67776;52.012;4.736;2024-01-11T07:53:45;-4.52;92.09
78490;DHT22;67776;52.012;4.736;2024-01-11T07:56:10;-4.55;91.57
78490;DHT22;67776;52.012;4.736;2024-01-11T07:58:36;-4.52;91.66
78490;DHT22;67776;52.012;4.736;2024-01-11T08:01:03;-4.52;91.41
78490;DHT22;67776;52.012;4.736;2024-01-11T08:03:29;-4.53;91.54
78490;DHT22;67776;52.012;4.736;2024-01-11T08:05:55;-4.53;91.72
78490;DHT22;67776;52.012;4.736;2024-01-11T08:08:20;-4.55;92.55
78490;DHT22;67776;52.012;4.736;2024-01-11T08:10:47;-4.46;92.17
78490;DHT22;67776;52.012;4.736;2024-01-11T08:13:13;-4.42;91.96
78490;DHT22;67776;52.012;4.736;2024-01-11T08:15:39;-4.38;91.58
78490;DHT22;67776;52.012;4.736;2024-01-11T08:18:04;-4.32;91.52
78490;DHT22;67776;52.012;4.736;2024-01-11T08:20:30;-4.31;91.26
78490;DHT22;67776;52.012;4.736;2024-01-11T08:22:55;-4.25;91.02
78490;DHT22;67776;52.012;4.736;2024-01-11T08:25:21;-4.26;90.61
78490;DHT22;67776;52.012;4.736;2024-01-11T08:27:48;-4.24;90.74
78490;DHT22;67776;52.012;4.736;2024-01-11T08:30:13;-4.19;90.70
78490;DHT22;67776;52.012;4.736;2024-01-11T08:32:39;-4.14;90.58
78490;DHT22;67776;52.012;4.736;2024-01-11T08:35:07;-4.11;90.33
78490;DHT22;67776;52.012;4.736;2024-01-11T08:37:35;-4.13;90.23
78490;DHT22;67776;52.012;4.736;2024-01-11T08:40:00;-4.08;90.31
78490;DHT22;67776;52.012;4.736;2024-01-11T08:42:25;-4.03;90.47
78490;DHT22;67776;52.012;4.736;2024-01-11T08:44:51;-3.97;90.45
78490;DHT22;67776;52.012;4.736;2024-01-11T08:47:17;-3.94;90.47
78490;DHT22;67776;52.012;4.736;2024-01-11T08:49:42;-3.86;90.34
78490;DHT22;67776;52.012;4.736;2024-01-11T08:52:08;-3.79;90.25
78490;DHT22;67776;52.012;4.736;2024-01-11T08:54:34;-3.76;89.87
78490;DHT22;67776;52.012;4.736;2024-01-11T08:56:59;-3.66;89.66
78490;DHT22;67776;52.012;4.736;2024-01-11T08:59:25;-3.58;89.21
78490;DHT22;67776;52.012;4.736;2024-01-11T09:01:51;-3.55;88.82
78490;DHT22;67776;52.012;4.736;2024-01-11T09:04:17;-3.47;88.28
78490;DHT22;67776;52.012;4.736;2024-01-11T09:06:43;-3.38;87.84
78490;DHT22;67776;52.012;4.736;2024-01-11T09:09:08;-3.35;87.28
78490;DHT22;67776;52.012;4.736;2024-01-11T09:11:35;-3.30;87.08
78490;DHT22;67776;52.012;4.736;2024-01-11T09:14:01;-3.24;86.80
78490;DHT22;67776;52.012;4.736;2024-01-11T09:16:28;-3.14;85.47
78490;DHT22;67776;52.012;4.736;2024-01-11T09:18:53;-3.11;84.62
78490;DHT22;67776;52.012;4.736;2024-01-11T09:21:18;-3.03;83.81
78490;DHT22;67776;52.012;4.736;2024-01-11T09:23:44;-2.96;82.07
78490;DHT22;67776;52.012;4.736;2024-01-11T09:26:09;-2.83;82.07
78490;DHT22;67776;52.012;4.736;2024-01-11T09:28:35;-2.76;82.19
78490;DHT22;67776;52.012;4.736;2024-01-11T09:31:00;-2.75;82.65
78490;DHT22;67776;52.012;4.736;2024-01-11T09:33:27;-2.79;83.77
78490;DHT22;67776;52.012;4.736;2024-01-11T09:35:52;-2.70;84.21
78490;DHT22;67776;52.012;4.736;2024-01-11T09:38:18;-2.64;84.47
78490;DHT22;67776;52.012;4.736;2024-01-11T09:40:43;-2.54;84.34
78490;DHT22;67776;52.012;4.736;2024-01-11T09:43:09;-2.41;84.17
78490;DHT22;67776;52.012;4.736;2024-01-11T09:45:36;-2.17;84.33
78490;DHT22;67776;52.012;4.736;2024-01-11T09:48:04;-1.94;84.40
78490;DHT22;67776;52.012;4.736;2024-01-11T09:50:30;-1.83;84.23
78490;DHT22;67776;52.012;4.736;2024-01-11T09:52:55;-1.76;85.23
78490;DHT22;67776;52.012;4.736;2024-01-11T09:55:20;-1.69;85.44
78490;DHT22;67776;52.012;4.736;2024-01-11T09:57:47;-1.76;86.88
78490;DHT22;67776;52.012;4.736;2024-01-11T10:00:16;-1.75;87.62
78490;DHT22;67776;52.012;4.736;2024-01-11T10:02:41;-1.65;87.54
78490;DHT22;67776;52.012;4.736;2024-01-11T10:05:07;-1.59;87.90
78490;DHT22;67776;52.012;4.736;2024-01-11T10:07:34;-1.47;87.35
78490;DHT22;67776;52.012;4.736;2024-01-11T10:10:00;-1.43;87.39
78490;DHT22;67776;52.012;4.736;2024-01-11T10:12:27;-1.35;87.81
78490;DHT22;67776;52.012;4.736;2024-01-11T10:14:53;-1.44;88.80
78490;DHT22;67776;52.012;4.736;2024-01-11T10:17:18;-1.31;88.86
78490;DHT22;67776;52.012;4.736;2024-01-11T10:19:46;-1.23;88.43
78490;DHT22;67776;52.012;4.736;2024-01-11T10:22:11;-1.10;88.24
78490;DHT22;67776;52.012;4.736;2024-01-11T10:24:42;-1.09;87.76
78490;DHT22;67776;52.012;4.736;2024-01-11T10:27:10;-1.17;88.44
78490;DHT22;67776;52.012;4.736;2024-01-11T10:29:36;-0.97;88.13
78490;DHT22;67776;52.012;4.736;2024-01-11T10:32:05;-0.89;88.04
78490;DHT22;67776;52.012;4.736;2024-01-11T10:34:30;-0.88;87.87
78490;DHT22;67776;52.012;4.736;2024-01-11T10:36:56;-0.79;88.01
78490;DHT22;67776;52.012;4.736;2024-01-11T10:39:26;-0.81;88.08
78490;DHT22;67776;52.012;4.736;2024-01-11T10:42:13;-0.81;88.31
78490;DHT22;67776;52.012;4.736;2024-01-11T10:44:42;-0.75;88.38
78490;DHT22;67776;52.012;4.736;2024-01-11T10:47:11;-0.65;88.31
78490;DHT22;67776;52.012;4.736;2024-01-11T10:49:39;-0.44;87.71
78490;DHT22;67776;52.012;4.736;2024-01-11T10:52:07;-0.35;87.50
78490;DHT22;67776;52.012;4.736;2024-01-11T10:54:34;-0.50;87.76
78490;DHT22;67776;52.012;4.736;2024-01-11T10:57:00;-0.76;89.03
78490;DHT22;67776;52.012;4.736;2024-01-11T10:59:27;-0.85;90.06
78490;DHT22;67776;52.012;4.736;2024-01-11T11:01:53;-0.68;89.94
78490;DHT22;67776;52.012;4.736;2024-01-11T11:04:25;-0.68;90.08
78490;DHT22;67776;52.012;4.736;2024-01-11T11:06:56;-0.50;89.66
78490;DHT22;67776;52.012;4.736;2024-01-11T11:09:26;-0.38;89.23
78490;DHT22;67776;52.012;4.736;2024-01-11T11:11:58;-0.38;89.46
78490;DHT22;67776;52.012;4.736;2024-01-11T11:14:24;-0.23;89.07
78490;DHT22;67776;52.012;4.736;2024-01-11T11:16:51;-0.16;88.70
78490;DHT22;67776;52.012;4.736;2024-01-11T11:19:17;-0.07;88.81
78490;DHT22;67776;52.012;4.736;2024-01-11T11:21:44;0.05;88.69
78490;DHT22;67776;52.012;4.736;2024-01-11T11:24:11;-0.16;89.52
78490;DHT22;67776;52.012;4.736;2024-01-11T11:26:36;0.00;89.24
78490;DHT22;67776;52.012;4.736;2024-01-11T11:29:03;-0.03;89.79
78490;DHT22;67776;52.012;4.736;2024-01-11T11:34:01;-0.09;90.74
78490;DHT22;67776;52.012;4.736;2024-01-11T11:36:29;0.04;90.49
78490;DHT22;67776;52.012;4.736;2024-01-11T11:38:56;0.05;90.81
78490;DHT22;67776;52.012;4.736;2024-01-11T11:41:26;0.17;90.51
78490;DHT22;67776;52.012;4.736;2024-01-11T11:43:51;-0.05;91.40
78490;DHT22;67776;52.012;4.736;2024-01-11T11:46:17;-0.06;91.78
78490;DHT22;67776;52.012;4.736;2024-01-11T11:51:18;-0.07;92.70
78490;DHT22;67776;52.012;4.736;2024-01-11T11:53:45;-0.02;92.34
78490;DHT22;67776;52.012;4.736;2024-01-11T11:56:11;0.07;92.29
78490;DHT22;67776;52.012;4.736;2024-01-11T11:58:44;0.05;92.13
78490;DHT22;67776;52.012;4.736;2024-01-11T12:01:09;0.07;92.45
78490;DHT22;67776;52.012;4.736;2024-01-11T12:03:37;0.22;92.26
78490;DHT22;67776;52.012;4.736;2024-01-11T12:06:03;0.33;91.56
78490;DHT22;67776;52.012;4.736;2024-01-11T12:08:29;0.29;91.71
78490;DHT22;67776;52.012;4.736;2024-01-11T12:10:55;0.46;91.45
78490;DHT22;67776;52.012;4.736;2024-01-11T12:13:21;0.38;91.44
78490;DHT22;67776;52.012;4.736;2024-01-11T12:15:47;0.46;91.10
78490;DHT22;67776;52.012;4.736;2024-01-11T12:18:12;0.62;91.03
78490;DHT22;67776;52.012;4.736;2024-01-11T12:20:37;0.70;90.53
78490;DHT22;67776;52.012;4.736;2024-01-11T12:23:03;0.72;90.43
78490;DHT22;67776;52.012;4.736;2024-01-11T12:25:30;0.67;90.47
78490;DHT22;67776;52.012;4.736;2024-01-11T12:27:55;0.57;91.01
78490;DHT22;67776;52.012;4.736;2024-01-11T12:30:25;0.55;91.37
78490;DHT22;67776;52.012;4.736;2024-01-11T12:32:51;0.56;91.20
78490;DHT22;67776;52.012;4.736;2024-01-11T12:35:17;0.52;91.33
78490;DHT22;67776;52.012;4.736;2024-01-11T12:38:03;0.65;91.26
78490;DHT22;67776;52.012;4.736;2024-01-11T12:40:34;0.72;91.00
78490;DHT22;67776;52.012;4.736;2024-01-11T12:43:00;0.72;91.16
78490;DHT22;67776;52.012;4.736;2024-01-11T12:45:26;0.79;91.00
78490;DHT22;67776;52.012;4.736;2024-01-11T12:47:52;0.87;90.67
78490;DHT22;67776;52.012;4.736;2024-01-11T12:50:19;0.81;90.96
78490;DHT22;67776;52.012;4.736;2024-01-11T12:52:45;0.80;91.02
78490;DHT22;67776;52.012;4.736;2024-01-11T12:55:18;0.95;90.96
78490;DHT22;67776;52.012;4.736;2024-01-11T12:57:44;1.00;90.41
78490;DHT22;67776;52.012;4.736;2024-01-11T13:00:13;1.04;90.31
78490;DHT22;67776;52.012;4.736;2024-01-11T13:02:39;1.04;90.41
78490;DHT22;67776;52.012;4.736;2024-01-11T13:05:05;1.04;90.62
78490;DHT22;67776;52.012;4.736;2024-01-11T13:07:32;1.03;90.45
78490;DHT22;67776;52.012;4.736;2024-01-11T13:09:57;1.00;90.53
78490;DHT22;67776;52.012;4.736;2024-01-11T13:12:23;1.00;90.71
78490;DHT22;67776;52.012;4.736;2024-01-11T13:14:48;0.94;91.00
78490;DHT22;67776;52.012;4.736;2024-01-11T13:17:15;0.88;91.35
78490;DHT22;67776;52.012;4.736;2024-01-11T13:19:41;0.90;91.65
78490;DHT22;67776;52.012;4.736;2024-01-11T13:22:07;1.15;90.77
78490;DHT22;67776;52.012;4.736;2024-01-11T13:24:32;1.18;90.48
78490;DHT22;67776;52.012;4.736;2024-01-11T13:26:58;1.03;91.46
78490;DHT22;67776;52.012;4.736;2024-01-11T13:29:23;1.25;90.68
78490;DHT22;67776;52.012;4.736;2024-01-11T13:31:49;1.21;90.95
78490;DHT22;67776;52.012;4.736;2024-01-11T13:34:15;1.15;90.57
78490;DHT22;67776;52.012;4.736;2024-01-11T13:36:40;1.15;90.80
78490;DHT22;67776;52.012;4.736;2024-01-11T13:39:05;1.11;90.88
78490;DHT22;67776;52.012;4.736;2024-01-11T13:41:34;1.08;91.27
78490;DHT22;67776;52.012;4.736;2024-01-11T13:43:59;1.03;91.75
78490;DHT22;67776;52.012;4.736;2024-01-11T13:46:25;1.07;91.63
78490;DHT22;67776;52.012;4.736;2024-01-11T13:48:50;1.03;91.75
78490;DHT22;67776;52.012;4.736;2024-01-11T13:51:16;1.07;91.67
78490;DHT22;67776;52.012;4.736;2024-01-11T13:53:41;1.04;91.77
78490;DHT22;67776;52.012;4.736;2024-01-11T13:56:07;1.04;92.05
78490;DHT22;67776;52.012;4.736;2024-01-11T13:58:32;1.00;92.39
78490;DHT22;67776;52.012;4.736;2024-01-11T14:00:57;1.11;91.60
78490;DHT22;67776;52.012;4.736;2024-01-11T14:03:23;1.04;92.33
78490;DHT22;67776;52.012;4.736;2024-01-11T14:05:49;1.07;92.12
78490;DHT22;67776;52.012;4.736;2024-01-11T14:08:14;1.21;91.80
78490;DHT22;67776;52.012;4.736;2024-01-11T14:10:40;1.28;91.00
78490;DHT22;67776;52.012;4.736;2024-01-11T14:13:05;1.25;91.31
78490;DHT22;67776;52.012;4.736;2024-01-11T14:15:33;1.15;91.75
78490;DHT22;67776;52.012;4.736;2024-01-11T14:17:59;1.08;92.64
78490;DHT22;67776;52.012;4.736;2024-01-11T14:20:24;1.18;91.64
78490;DHT22;67776;52.012;4.736;2024-01-11T14:22:50;1.07;92.40
78490;DHT22;67776;52.012;4.736;2024-01-11T14:25:17;1.08;92.33
78490;DHT22;67776;52.012;4.736;2024-01-11T14:27:43;0.98;93.04
78490;DHT22;67776;52.012;4.736;2024-01-11T14:30:10;1.00;92.66
78490;DHT22;67776;52.012;4.736;2024-01-11T14:32:36;0.98;92.93
78490;DHT22;67776;52.012;4.736;2024-01-11T14:35:02;0.97;92.78
78490;DHT22;67776;52.012;4.736;2024-01-11T14:37:33;0.97;93.34
78490;DHT22;67776;52.012;4.736;2024-01-11T14:39:58;0.97;93.42
78490;DHT22;67776;52.012;4.736;2024-01-11T14:42:24;1.04;93.36
78490;DHT22;67776;52.012;4.736;2024-01-11T14:44:49;1.00;93.14
78490;DHT22;67776;52.012;4.736;2024-01-11T14:47:15;1.00;93.14
78490;DHT22;67776;52.012;4.736;2024-01-11T14:49:41;0.93;93.11
78490;DHT22;67776;52.012;4.736;2024-01-11T14:52:06;0.94;93.20
78490;DHT22;67776;52.012;4.736;2024-01-11T14:54:31;0.90;93.40
78490;DHT22;67776;52.012;4.736;2024-01-11T14:56:57;0.83;93.95
78490;DHT22;67776;52.012;4.736;2024-01-11T14:59:22;0.86;94.08
78490;DHT22;67776;52.012;4.736;2024-01-11T15:01:48;1.01;93.55
78490;DHT22;67776;52.012;4.736;2024-01-11T15:04:13;1.07;93.66
78490;DHT22;67776;52.012;4.736;2024-01-11T15:06:39;1.05;93.25
78490;DHT22;67776;52.012;4.736;2024-01-11T15:09:04;1.05;93.21
78490;DHT22;67776;52.012;4.736;2024-01-11T15:11:30;0.98;93.79
78490;DHT22;67776;52.012;4.736;2024-01-11T15:14:01;0.90;94.20
78490;DHT22;67776;52.012;4.736;2024-01-11T15:16:28;0.95;94.66
78490;DHT22;67776;52.012;4.736;2024-01-11T15:18:53;0.98;94.25
78490;DHT22;67776;52.012;4.736;2024-01-11T15:21:19;0.93;94.32
78490;DHT22;67776;52.012;4.736;2024-01-11T15:23:44;0.93;94.81
78490;DHT22;67776;52.012;4.736;2024-01-11T15:26:09;0.84;95.19
78490;DHT22;67776;52.012;4.736;2024-01-11T15:28:35;0.95;94.95
78490;DHT22;67776;52.012;4.736;2024-01-11T15:31:00;0.94;95.39
78490;DHT22;67776;52.012;4.736;2024-01-11T15:33:25;0.94;95.36